sensor_id;sensor_type;location;lat;lon;timestamp;P1;durP1;ratioP1;P2;durP2;ratioP2
30824;SDS011;17550;45.486;12.222;2023-02-18T00:02:03;559.05;;;193.57;;
30824;SDS011;17550;45.486;12.222;2023-02-18T00:04:29;505.17;;;179.68;;
30824;SDS011;17550;45.486;12.222;2023-02-18T00:06:55;521.33;;;185.05;;
30824;SDS011;17550;45.486;12.222;2023-02-18T00:09:21;495.63;;;177.95;;
30824;SDS011;17550;45.486;12.222;2023-02-18T00:11:46;489.27;;;175.20;;
30824;SDS011;17550;45.486;12.222;2023-02-18T00:14:13;477.50;;;171.18;;
30824;SDS011;17550;45.486;12.222;2023-02-18T00:16:41;475.67;;;167.75;;
30824;SDS011;17550;45.486;12.222;2023-02-18T00:19:09;473.30;;;164.02;;
30824;SDS011;17550;45.486;12.222;2023-02-18T00:21:36;491.10;;;171.05;;
30824;SDS011;17550;45.486;12.222;2023-02-18T00:24:03;504.15;;;170.63;;
30824;SDS011;17550;45.486;12.222;2023-02-18T00:26:30;477.10;;;169.55;;
30824;SDS011;17550;45.486;12.222;2023-02-18T00:28:56;472.58;;;169.18;;
30824;SDS011;17550;45.486;12.222;2023-02-18T00:31:23;445.90;;;159.43;;
30824;SDS011;17550;45.486;12.222;2023-02-18T00:33:50;446.20;;;156.55;;
30824;SDS011;17550;45.486;12.222;2023-02-18T00:36:17;441.30;;;157.88;;
30824;SDS011;17550;45.486;12.222;2023-02-18T00:38:45;439.58;;;159.55;;
30824;SDS011;17550;45.486;12.222;2023-02-18T00:41:11;439.05;;;162.70;;
30824;SDS011;17550;45.486;12.222;2023-02-18T00:43:39;446.95;;;161.65;;
30824;SDS011;17550;45.486;12.222;2023-02-18T00:46:06;471.27;;;164.35;;
30824;SDS011;17550;45.486;12.222;2023-02-18T00:48:32;454.20;;;159.82;;
30824;SDS011;17550;45.486;12.222;2023-02-18T00:50:59;480.10;;;164.25;;
30824;SDS011;17550;45.486;12.222;2023-02-18T00:53:26;479.92;;;168.55;;
30824;SDS011;17550;45.486;12.222;2023-02-18T00:55:52;457.52;;;156.82;;
30824;SDS011;17550;45.486;12.222;2023-02-18T00:58:18;488.70;;;169.07;;
30824;SDS011;17550;45.486;12.222;2023-02-18T01:00:44;455.60;;;158.63;;
30824;SDS011;17550;45.486;12.222;2023-02-18T01:03:10;447.85;;;157.43;;
30824;SDS011;17550;45.486;12.222;2023-02-18T01:05:36;455.52;;;158.75;;
30824;SDS011;17550;45.486;12.222;2023-02-18T01:08:02;446.92;;;152.75;;
30824;SDS011;17550;45.486;12.222;2023-02-18T01:10:29;445.02;;;152.48;;
30824;SDS011;17550;45.486;12.222;2023-02-18T01:12:55;424.30;;;149.30;;
30824;SDS011;17550;45.486;12.222;2023-02-18T01:15:21;403.17;;;145.73;;
30824;SDS011;17550;45.486;12.222;2023-02-18T01:17:47;432.65;;;155.63;;
30824;SDS011;17550;45.486;12.222;2023-02-18T01:20:13;386.52;;;145.68;;
30824;SDS011;17550;45.486;12.222;2023-02-18T01:22:39;436.33;;;152.85;;
30824;SDS011;17550;45.486;12.222;2023-02-18T01:25:05;422.77;;;150.50;;
30824;SDS011;17550;45.486;12.222;2023-02-18T01:27:32;435.08;;;149.77;;
30824;SDS011;17550;45.486;12.222;2023-02-18T01:29:58;433.85;;;148.18;;
30824;SDS011;17550;45.486;12.222;2023-02-18T01:32:23;380.55;;;140.13;;
30824;SDS011;17550;45.486;12.222;2023-02-18T01:34:49;386.73;;;141.95;;
30824;SDS011;17550;45.486;12.222;2023-02-18T01:37:15;381.60;;;138.90;;
30824;SDS011;17550;45.486;12.222;2023-02-18T01:39:40;391.65;;;141.07;;
30824;SDS011;17550;45.486;12.222;2023-02-18T01:42:06;348.65;;;133.02;;
30824;SDS011;17550;45.486;12.222;2023-02-18T01:44:42;367.52;;;135.52;;
30824;SDS011;17550;45.486;12.222;2023-02-18T01:47:08;374.20;;;137.80;;
30824;SDS011;17550;45.486;12.222;2023-02-18T01:49:34;352.25;;;130.90;;
30824;SDS011;17550;45.486;12.222;2023-02-18T01:52:06;334.48;;;131.32;;
30824;SDS011;17550;45.486;12.222;2023-02-18T01:54:42;325.40;;;124.35;;
30824;SDS011;17550;45.486;12.222;2023-02-18T01:59:45;377.73;;;138.45;;
30824;SDS011;17550;45.486;12.222;2023-02-18T02:02:17;338.85;;;134.98;;
30824;SDS011;17550;45.486;12.222;2023-02-18T02:04:45;353.42;;;131.77;;
30824;SDS011;17550;45.486;12.222;2023-02-18T02:07:12;332.60;;;132.38;;
30824;SDS011;17550;45.486;12.222;2023-02-18T02:09:40;357.13;;;134.40;;
30824;SDS011;17550;45.486;12.222;2023-02-18T02:15:03;370.23;;;133.95;;
30824;SDS011;17550;45.486;12.222;2023-02-18T02:23:33;321.20;;;122.93;;
30824;SDS011;17550;45.486;12.222;2023-02-18T02:27:20;299.50;;;118.22;;
30824;SDS011;17550;45.486;12.222;2023-02-18T02:42:43;229.40;;;98.80;;
30824;SDS011;17550;45.486;12.222;2023-02-18T02:45:16;237.70;;;98.13;;
30824;SDS011;17550;45.486;12.222;2023-02-18T02:53:30;223.75;;;98.18;;
30824;SDS011;17550;45.486;12.222;2023-02-18T02:55:58;221.25;;;96.18;;
30824;SDS011;17550;45.486;12.222;2023-02-18T02:58:23;227.82;;;99.95;;
30824;SDS011;17550;45.486;12.222;2023-02-18T03:01:01;219.85;;;97.38;;
30824;SDS011;17550;45.486;12.222;2023-02-18T03:21:02;210.85;;;93.88;;
30824;SDS011;17550;45.486;12.222;2023-02-18T03:23:41;226.13;;;97.00;;
30824;SDS011;17550;45.486;12.222;2023-02-18T03:26:12;222.07;;;94.60;;
30824;SDS011;17550;45.486;12.222;2023-02-18T03:28:42;211.02;;;92.72;;
30824;SDS011;17550;45.486;12.222;2023-02-18T03:31:14;199.63;;;90.22;;
30824;SDS011;17550;45.486;12.222;2023-02-18T03:33:47;210.18;;;95.57;;
30824;SDS011;17550;45.486;12.222;2023-02-18T03:36:20;208.38;;;92.43;;
30824;SDS011;17550;45.486;12.222;2023-02-18T03:38:49;203.77;;;91.47;;
30824;SDS011;17550;45.486;12.222;2023-02-18T03:41:20;191.60;;;88.43;;
30824;SDS011;17550;45.486;12.222;2023-02-18T03:43:52;217.27;;;94.90;;
30824;SDS011;17550;45.486;12.222;2023-02-18T03:46:22;196.48;;;88.78;;
30824;SDS011;17550;45.486;12.222;2023-02-18T03:48:47;225.23;;;95.18;;
30824;SDS011;17550;45.486;12.222;2023-02-18T03:51:13;212.35;;;91.05;;
30824;SDS011;17550;45.486;12.222;2023-02-18T03:53:39;256.92;;;98.70;;
30824;SDS011;17550;45.486;12.222;2023-02-18T03:56:04;240.25;;;96.40;;
30824;SDS011;17550;45.486;12.222;2023-02-18T03:58:31;234.55;;;95.00;;
30824;SDS011;17550;45.486;12.222;2023-02-18T04:00:56;197.90;;;87.72;;
30824;SDS011;17550;45.486;12.222;2023-02-18T04:03:22;197.02;;;86.70;;
30824;SDS011;17550;45.486;12.222;2023-02-18T04:05:48;195.57;;;88.25;;
30824;SDS011;17550;45.486;12.222;2023-02-18T04:08:16;200.45;;;84.88;;
30824;SDS011;17550;45.486;12.222;2023-02-18T04:10:42;202.98;;;83.68;;
30824;SDS011;17550;45.486;12.222;2023-02-18T04:13:08;195.07;;;85.18;;
30824;SDS011;17550;45.486;12.222;2023-02-18T04:15:35;209.57;;;87.20;;
30824;SDS011;17550;45.486;12.222;2023-02-18T04:18:01;191.48;;;83.43;;
30824;SDS011;17550;45.486;12.222;2023-02-18T04:20:27;188.88;;;81.57;;
30824;SDS011;17550;45.486;12.222;2023-02-18T04:22:53;190.98;;;83.88;;
30824;SDS011;17550;45.486;12.222;2023-02-18T04:25:18;199.50;;;85.68;;
30824;SDS011;17550;45.486;12.222;2023-02-18T04:27:44;188.23;;;83.63;;
30824;SDS011;17550;45.486;12.222;2023-02-18T04:30:10;206.05;;;87.43;;
30824;SDS011;17550;45.486;12.222;2023-02-18T04:32:36;194.02;;;82.82;;
30824;SDS011;17550;45.486;12.222;2023-02-18T04:35:02;191.02;;;84.15;;
30824;SDS011;17550;45.486;12.222;2023-02-18T04:37:28;197.20;;;86.82;;
30824;SDS011;17550;45.486;12.222;2023-02-18T04:39:53;199.65;;;86.43;;
30824;SDS011;17550;45.486;12.222;2023-02-18T04:42:19;197.50;;;88.05;;
30824;SDS011;17550;45.486;12.222;2023-02-18T04:44:45;198.85;;;89.25;;
30824;SDS011;17550;45.486;12.222;2023-02-18T04:47:10;192.20;;;87.78;;
30824;SDS011;17550;45.486;12.222;2023-02-18T04:49:36;213.13;;;90.63;;
30824;SDS011;17550;45.486;12.222;2023-02-18T04:52:02;195.13;;;84.20;;
30824;SDS011;17550;45.486;12.222;2023-02-18T04:54:28;192.85;;;85.30;;
30824;SDS011;17550;45.486;12.222;2023-02-18T04:56:54;201.38;;;88.75;;
30824;SDS011;17550;45.486;12.222;2023-02-18T04:59:19;214.45;;;93.18;;
30824;SDS011;17550;45.486;12.222;2023-02-18T05:01:45;205.20;;;89.65;;
30824;SDS011;17550;45.486;12.222;2023-02-18T05:04:11;205.25;;;90.78;;
30824;SDS011;17550;45.486;12.222;2023-02-18T05:06:37;203.75;;;90.82;;
30824;SDS011;17550;45.486;12.222;2023-02-18T05:09:04;200.18;;;89.78;;
30824;SDS011;17550;45.486;12.222;2023-02-18T05:11:30;204.77;;;89.45;;
30824;SDS011;17550;45.486;12.222;2023-02-18T05:13:55;207.82;;;90.53;;
30824;SDS011;17550;45.486;12.222;2023-02-18T05:16:21;209.80;;;93.68;;
30824;SDS011;17550;45.486;12.222;2023-02-18T05:18:47;202.05;;;89.55;;
30824;SDS011;17550;45.486;12.222;2023-02-18T05:21:12;200.93;;;88.18;;
30824;SDS011;17550;45.486;12.222;2023-02-18T05:23:38;197.20;;;90.85;;
30824;SDS011;17550;45.486;12.222;2023-02-18T05:26:04;185.82;;;86.97;;
30824;SDS011;17550;45.486;12.222;2023-02-18T05:28:29;195.35;;;89.82;;
30824;SDS011;17550;45.486;12.222;2023-02-18T05:30:55;191.32;;;90.30;;
30824;SDS011;17550;45.486;12.222;2023-02-18T05:33:21;196.68;;;88.30;;
30824;SDS011;17550;45.486;12.222;2023-02-18T05:35:47;199.55;;;91.53;;
30824;SDS011;17550;45.486;12.222;2023-02-18T05:38:12;191.80;;;89.03;;
30824;SDS011;17550;45.486;12.222;2023-02-18T05:40:38;191.55;;;87.72;;
30824;SDS011;17550;45.486;12.222;2023-02-18T05:43:04;192.80;;;88.68;;
30824;SDS011;17550;45.486;12.222;2023-02-18T05:45:30;195.95;;;88.90;;
30824;SDS011;17550;45.486;12.222;2023-02-18T05:47:55;197.00;;;92.25;;
30824;SDS011;17550;45.486;12.222;2023-02-18T05:50:21;195.75;;;88.05;;
30824;SDS011;17550;45.486;12.222;2023-02-18T05:52:47;186.55;;;88.18;;
30824;SDS011;17550;45.486;12.222;2023-02-18T05:55:12;192.35;;;87.07;;
30824;SDS011;17550;45.486;12.222;2023-02-18T05:57:39;184.75;;;88.95;;
30824;SDS011;17550;45.486;12.222;2023-02-18T06:00:05;197.93;;;89.95;;
30824;SDS011;17550;45.486;12.222;2023-02-18T06:02:33;186.50;;;86.25;;
30824;SDS011;17550;45.486;12.222;2023-02-18T06:04:58;192.23;;;89.43;;
30824;SDS011;17550;45.486;12.222;2023-02-18T06:07:24;186.45;;;89.68;;
30824;SDS011;17550;45.486;12.222;2023-02-18T06:09:50;205.27;;;91.95;;
30824;SDS011;17550;45.486;12.222;2023-02-18T06:12:15;203.95;;;91.55;;
30824;SDS011;17550;45.486;12.222;2023-02-18T06:14:41;211.05;;;94.45;;
30824;SDS011;17550;45.486;12.222;2023-02-18T06:17:13;200.68;;;94.88;;
30824;SDS011;17550;45.486;12.222;2023-02-18T06:19:39;220.75;;;100.40;;
30824;SDS011;17550;45.486;12.222;2023-02-18T06:22:06;218.70;;;98.55;;
30824;SDS011;17550;45.486;12.222;2023-02-18T06:24:31;226.85;;;101.90;;
30824;SDS011;17550;45.486;12.222;2023-02-18T06:26:57;239.10;;;104.70;;
30824;SDS011;17550;45.486;12.222;2023-02-18T06:29:23;227.63;;;103.82;;
30824;SDS011;17550;45.486;12.222;2023-02-18T06:31:49;221.25;;;103.90;;
30824;SDS011;17550;45.486;12.222;2023-02-18T06:34:15;237.02;;;104.10;;
30824;SDS011;17550;45.486;12.222;2023-02-18T06:36:41;209.48;;;101.47;;
30824;SDS011;17550;45.486;12.222;2023-02-18T06:39:07;233.55;;;104.03;;
30824;SDS011;17550;45.486;12.222;2023-02-18T06:41:32;225.13;;;104.22;;
30824;SDS011;17550;45.486;12.222;2023-02-18T06:43:58;230.63;;;105.95;;
30824;SDS011;17550;45.486;12.222;2023-02-18T06:46:24;227.20;;;104.57;;
30824;SDS011;17550;45.486;12.222;2023-02-18T06:48:50;234.70;;;105.80;;
30824;SDS011;17550;45.486;12.222;2023-02-18T06:51:16;224.65;;;104.53;;
30824;SDS011;17550;45.486;12.222;2023-02-18T06:53:43;229.85;;;106.60;;
30824;SDS011;17550;45.486;12.222;2023-02-18T06:56:09;237.73;;;107.53;;
30824;SDS011;17550;45.486;12.222;2023-02-18T06:58:35;235.82;;;109.75;;
30824;SDS011;17550;45.486;12.222;2023-02-18T07:01:02;245.30;;;113.50;;
30824;SDS011;17550;45.486;12.222;2023-02-18T07:03:28;226.10;;;108.97;;
30824;SDS011;17550;45.486;12.222;2023-02-18T07:05:54;237.80;;;110.53;;
30824;SDS011;17550;45.486;12.222;2023-02-18T07:08:20;233.15;;;109.90;;
30824;SDS011;17550;45.486;12.222;2023-02-18T07:10:45;251.20;;;114.93;;
30824;SDS011;17550;45.486;12.222;2023-02-18T07:13:12;241.68;;;109.15;;
30824;SDS011;17550;45.486;12.222;2023-02-18T07:15:37;237.82;;;110.68;;
30824;SDS011;17550;45.486;12.222;2023-02-18T07:18:03;236.60;;;108.35;;
30824;SDS011;17550;45.486;12.222;2023-02-18T07:20:29;240.07;;;110.60;;
30824;SDS011;17550;45.486;12.222;2023-02-18T07:22:55;235.02;;;107.05;;
30824;SDS011;17550;45.486;12.222;2023-02-18T07:25:21;250.77;;;111.20;;
30824;SDS011;17550;45.486;12.222;2023-02-18T07:27:47;249.63;;;111.07;;
30824;SDS011;17550;45.486;12.222;2023-02-18T07:30:13;276.20;;;117.43;;
30824;SDS011;17550;45.486;12.222;2023-02-18T07:32:41;244.88;;;110.95;;
30824;SDS011;17550;45.486;12.222;2023-02-18T07:35:07;236.93;;;107.70;;
30824;SDS011;17550;45.486;12.222;2023-02-18T07:37:34;254.43;;;111.65;;
30824;SDS011;17550;45.486;12.222;2023-02-18T07:40:03;251.55;;;113.03;;
30824;SDS011;17550;45.486;12.222;2023-02-18T07:42:29;259.17;;;112.70;;
30824;SDS011;17550;45.486;12.222;2023-02-18T07:44:55;265.30;;;112.55;;
30824;SDS011;17550;45.486;12.222;2023-02-18T07:47:21;270.77;;;114.25;;
30824;SDS011;17550;45.486;12.222;2023-02-18T07:49:47;257.65;;;114.85;;
30824;SDS011;17550;45.486;12.222;2023-02-18T07:52:13;276.42;;;114.78;;
30824;SDS011;17550;45.486;12.222;2023-02-18T07:54:39;264.77;;;110.72;;
30824;SDS011;17550;45.486;12.222;2023-02-18T07:57:05;286.25;;;113.75;;
30824;SDS011;17550;45.486;12.222;2023-02-18T07:59:31;284.70;;;115.88;;
30824;SDS011;17550;45.486;12.222;2023-02-18T08:01:57;294.13;;;118.20;;
30824;SDS011;17550;45.486;12.222;2023-02-18T08:04:23;257.35;;;111.88;;
30824;SDS011;17550;45.486;12.222;2023-02-18T08:06:48;256.23;;;110.78;;
30824;SDS011;17550;45.486;12.222;2023-02-18T08:09:15;280.70;;;116.20;;
30824;SDS011;17550;45.486;12.222;2023-02-18T08:11:42;262.55;;;117.80;;
30824;SDS011;17550;45.486;12.222;2023-02-18T08:14:08;251.93;;;110.15;;
30824;SDS011;17550;45.486;12.222;2023-02-18T08:16:34;259.40;;;113.57;;
30824;SDS011;17550;45.486;12.222;2023-02-18T08:19:00;253.90;;;109.60;;
30824;SDS011;17550;45.486;12.222;2023-02-18T08:21:27;257.73;;;114.50;;
30824;SDS011;17550;45.486;12.222;2023-02-18T08:23:53;273.65;;;112.55;;
30824;SDS011;17550;45.486;12.222;2023-02-18T08:26:19;262.30;;;114.43;;
30824;SDS011;17550;45.486;12.222;2023-02-18T08:28:45;259.33;;;113.00;;
30824;SDS011;17550;45.486;12.222;2023-02-18T08:31:19;254.98;;;112.32;;
30824;SDS011;17550;45.486;12.222;2023-02-18T08:33:47;272.48;;;111.78;;
30824;SDS011;17550;45.486;12.222;2023-02-18T08:36:13;271.67;;;115.55;;
30824;SDS011;17550;45.486;12.222;2023-02-18T08:38:39;269.02;;;112.30;;
30824;SDS011;17550;45.486;12.222;2023-02-18T08:41:06;256.80;;;110.05;;
30824;SDS011;17550;45.486;12.222;2023-02-18T08:43:33;279.10;;;114.53;;
30824;SDS011;17550;45.486;12.222;2023-02-18T08:45:58;269.05;;;113.47;;
30824;SDS011;17550;45.486;12.222;2023-02-18T08:48:24;257.92;;;110.40;;
30824;SDS011;17550;45.486;12.222;2023-02-18T08:50:50;263.05;;;112.55;;
30824;SDS011;17550;45.486;12.222;2023-02-18T08:53:16;251.68;;;108.95;;
30824;SDS011;17550;45.486;12.222;2023-02-18T08:55:42;275.83;;;110.88;;
30824;SDS011;17550;45.486;12.222;2023-02-18T08:58:08;271.00;;;112.10;;
30824;SDS011;17550;45.486;12.222;2023-02-18T09:00:36;272.05;;;112.35;;
30824;SDS011;17550;45.486;12.222;2023-02-18T09:03:03;264.83;;;109.05;;
30824;SDS011;17550;45.486;12.222;2023-02-18T09:05:30;277.58;;;113.07;;
30824;SDS011;17550;45.486;12.222;2023-02-18T09:07:55;270.10;;;111.65;;
30824;SDS011;17550;45.486;12.222;2023-02-18T09:10:21;267.10;;;111.50;;
30824;SDS011;17550;45.486;12.222;2023-02-18T09:12:47;262.63;;;108.78;;
30824;SDS011;17550;45.486;12.222;2023-02-18T09:15:13;265.35;;;111.57;;
30824;SDS011;17550;45.486;12.222;2023-02-18T09:17:39;274.40;;;112.63;;
30824;SDS011;17550;45.486;12.222;2023-02-18T09:20:05;268.70;;;110.18;;
30824;SDS011;17550;45.486;12.222;2023-02-18T09:22:31;265.50;;;109.35;;
30824;SDS011;17550;45.486;12.222;2023-02-18T09:24:57;262.58;;;107.18;;
30824;SDS011;17550;45.486;12.222;2023-02-18T09:27:23;261.27;;;105.55;;
30824;SDS011;17550;45.486;12.222;2023-02-18T09:29:49;273.92;;;113.15;;
30824;SDS011;17550;45.486;12.222;2023-02-18T09:32:15;276.77;;;112.70;;
30824;SDS011;17550;45.486;12.222;2023-02-18T09:34:42;258.38;;;110.70;;
30824;SDS011;17550;45.486;12.222;2023-02-18T09:37:08;261.58;;;107.38;;
30824;SDS011;17550;45.486;12.222;2023-02-18T09:39:35;267.25;;;107.78;;
30824;SDS011;17550;45.486;12.222;2023-02-18T09:42:02;268.15;;;110.10;;
30824;SDS011;17550;45.486;12.222;2023-02-18T09:44:33;259.13;;;108.28;;
30824;SDS011;17550;45.486;12.222;2023-02-18T09:49:40;273.80;;;109.47;;
30824;SDS011;17550;45.486;12.222;2023-02-18T09:52:21;267.33;;;107.25;;
30824;SDS011;17550;45.486;12.222;2023-02-18T09:54:53;271.02;;;106.78;;
30824;SDS011;17550;45.486;12.222;2023-02-18T09:57:25;264.58;;;104.10;;
30824;SDS011;17550;45.486;12.222;2023-02-18T10:00:03;278.75;;;113.55;;
30824;SDS011;17550;45.486;12.222;2023-02-18T10:02:37;287.95;;;112.07;;
30824;SDS011;17550;45.486;12.222;2023-02-18T10:05:05;290.98;;;108.88;;
30824;SDS011;17550;45.486;12.222;2023-02-18T10:07:38;286.20;;;106.47;;
30824;SDS011;17550;45.486;12.222;2023-02-18T10:10:17;293.10;;;110.50;;
30824;SDS011;17550;45.486;12.222;2023-02-18T10:12:50;284.45;;;109.00;;
30824;SDS011;17550;45.486;12.222;2023-02-18T10:15:21;289.60;;;107.18;;
30824;SDS011;17550;45.486;12.222;2023-02-18T10:17:51;277.25;;;106.78;;
30824;SDS011;17550;45.486;12.222;2023-02-18T10:20:19;279.80;;;107.30;;
30824;SDS011;17550;45.486;12.222;2023-02-18T10:22:49;281.25;;;108.75;;
30824;SDS011;17550;45.486;12.222;2023-02-18T10:25:18;274.20;;;105.57;;
30824;SDS011;17550;45.486;12.222;2023-02-18T10:27:46;277.45;;;106.65;;
30824;SDS011;17550;45.486;12.222;2023-02-18T10:32:45;289.25;;;110.90;;
30824;SDS011;17550;45.486;12.222;2023-02-18T10:35:16;271.88;;;108.95;;
30824;SDS011;17550;45.486;12.222;2023-02-18T10:44:02;272.00;;;105.28;;
30824;SDS011;17550;45.486;12.222;2023-02-18T10:46:47;253.00;;;99.13;;
30824;SDS011;17550;45.486;12.222;2023-02-18T10:51:57;246.20;;;96.97;;
30824;SDS011;17550;45.486;12.222;2023-02-18T10:54:25;264.58;;;101.88;;
30824;SDS011;17550;45.486;12.222;2023-02-18T10:57:14;252.20;;;101.07;;
30824;SDS011;17550;45.486;12.222;2023-02-18T10:59:44;289.00;;;110.65;;
30824;SDS011;17550;45.486;12.222;2023-02-18T11:02:19;274.35;;;102.95;;
30824;SDS011;17550;45.486;12.222;2023-02-18T11:04:48;280.13;;;105.47;;
30824;SDS011;17550;45.486;12.222;2023-02-18T11:07:30;272.55;;;105.82;;
30824;SDS011;17550;45.486;12.222;2023-02-18T11:10:08;297.75;;;107.93;;
30824;SDS011;17550;45.486;12.222;2023-02-18T11:12:49;284.58;;;105.82;;
30824;SDS011;17550;45.486;12.222;2023-02-18T11:15:22;279.92;;;104.35;;
30824;SDS011;17550;45.486;12.222;2023-02-18T11:17:50;267.38;;;98.78;;
30824;SDS011;17550;45.486;12.222;2023-02-18T11:20:31;274.08;;;100.68;;
30824;SDS011;17550;45.486;12.222;2023-02-18T11:25:30;277.67;;;101.28;;
30824;SDS011;17550;45.486;12.222;2023-02-18T11:28:00;288.50;;;104.90;;
30824;SDS011;17550;45.486;12.222;2023-02-18T11:30:37;288.10;;;103.13;;
30824;SDS011;17550;45.486;12.222;2023-02-18T11:35:50;285.48;;;104.45;;
30824;SDS011;17550;45.486;12.222;2023-02-18T11:40:56;269.60;;;101.30;;
30824;SDS011;17550;45.486;12.222;2023-02-18T11:43:41;287.95;;;104.10;;
30824;SDS011;17550;45.486;12.222;2023-02-18T11:46:16;274.65;;;103.43;;
30824;SDS011;17550;45.486;12.222;2023-02-18T11:48:47;285.42;;;106.78;;
30824;SDS011;17550;45.486;12.222;2023-02-18T11:51:15;299.80;;;109.53;;
30824;SDS011;17550;45.486;12.222;2023-02-18T11:53:57;283.65;;;106.18;;
30824;SDS011;17550;45.486;12.222;2023-02-18T11:56:30;285.15;;;103.38;;
30824;SDS011;17550;45.486;12.222;2023-02-18T11:58:58;289.02;;;106.93;;
30824;SDS011;17550;45.486;12.222;2023-02-18T12:12:14;278.20;;;101.07;;
30824;SDS011;17550;45.486;12.222;2023-02-18T12:14:41;279.52;;;105.25;;
30824;SDS011;17550;45.486;12.222;2023-02-18T12:36:15;266.77;;;100.07;;
30824;SDS011;17550;45.486;12.222;2023-02-18T12:49:44;261.85;;;101.63;;
30824;SDS011;17550;45.486;12.222;2023-02-18T12:58:08;268.05;;;102.90;;
30824;SDS011;17550;45.486;12.222;2023-02-18T13:11:56;258.23;;;101.63;;
30824;SDS011;17550;45.486;12.222;2023-02-18T13:14:28;250.63;;;100.20;;
30824;SDS011;17550;45.486;12.222;2023-02-18T13:16:57;254.55;;;98.03;;
30824;SDS011;17550;45.486;12.222;2023-02-18T13:19:26;238.23;;;95.68;;
30824;SDS011;17550;45.486;12.222;2023-02-18T13:21:57;237.73;;;96.55;;
30824;SDS011;17550;45.486;12.222;2023-02-18T13:24:36;247.10;;;98.13;;
30824;SDS011;17550;45.486;12.222;2023-02-18T13:27:12;259.05;;;102.85;;
30824;SDS011;17550;45.486;12.222;2023-02-18T13:32:30;260.63;;;101.68;;
30824;SDS011;17550;45.486;12.222;2023-02-18T13:35:18;251.38;;;101.40;;
30824;SDS011;17550;45.486;12.222;2023-02-18T13:40:56;253.10;;;98.10;;
30824;SDS011;17550;45.486;12.222;2023-02-18T13:48:53;247.77;;;98.88;;
30824;SDS011;17550;45.486;12.222;2023-02-18T13:56:42;253.90;;;98.45;;
30824;SDS011;17550;45.486;12.222;2023-02-18T14:01:45;263.65;;;104.15;;
30824;SDS011;17550;45.486;12.222;2023-02-18T14:04:32;247.88;;;99.13;;
30824;SDS011;17550;45.486;12.222;2023-02-18T14:07:36;251.82;;;101.78;;
30824;SDS011;17550;45.486;12.222;2023-02-18T14:09:57;260.92;;;103.03;;
30824;SDS011;17550;45.486;12.222;2023-02-18T14:12:40;266.27;;;99.43;;
30824;SDS011;17550;45.486;12.222;2023-02-18T14:17:47;260.38;;;99.63;;
30824;SDS011;17550;45.486;12.222;2023-02-18T14:20:42;266.25;;;100.18;;
30824;SDS011;17550;45.486;12.222;2023-02-18T14:28:36;257.90;;;98.35;;
30824;SDS011;17550;45.486;12.222;2023-02-18T14:33:36;237.13;;;96.72;;
30824;SDS011;17550;45.486;12.222;2023-02-18T14:39:02;244.27;;;97.65;;
30824;SDS011;17550;45.486;12.222;2023-02-18T14:47:26;249.25;;;96.07;;
30824;SDS011;17550;45.486;12.222;2023-02-18T14:49:56;246.77;;;96.78;;
30824;SDS011;17550;45.486;12.222;2023-02-18T14:54:59;230.98;;;94.25;;
30824;SDS011;17550;45.486;12.222;2023-02-18T14:57:45;237.40;;;96.47;;
30824;SDS011;17550;45.486;12.222;2023-02-18T15:00:19;218.93;;;89.28;;
30824;SDS011;17550;45.486;12.222;2023-02-18T15:02:48;217.43;;;92.72;;
30824;SDS011;17550;45.486;12.222;2023-02-18T15:05:17;203.60;;;87.45;;
30824;SDS011;17550;45.486;12.222;2023-02-18T15:08:04;218.77;;;88.97;;
30824;SDS011;17550;45.486;12.222;2023-02-18T15:10:36;212.90;;;87.78;;
30824;SDS011;17550;45.486;12.222;2023-02-18T15:13:12;215.52;;;89.30;;
30824;SDS011;17550;45.486;12.222;2023-02-18T15:15:51;214.65;;;89.15;;
30824;SDS011;17550;45.486;12.222;2023-02-18T15:20:54;229.02;;;90.75;;
30824;SDS011;17550;45.486;12.222;2023-02-18T15:23:20;215.98;;;89.32;;
30824;SDS011;17550;45.486;12.222;2023-02-18T15:25:48;198.80;;;85.07;;
30824;SDS011;17550;45.486;12.222;2023-02-18T15:28:22;204.98;;;85.18;;
30824;SDS011;17550;45.486;12.222;2023-02-18T15:30:54;216.80;;;91.85;;
30824;SDS011;17550;45.486;12.222;2023-02-18T15:33:21;212.18;;;90.18;;
30824;SDS011;17550;45.486;12.222;2023-02-18T15:35:47;223.57;;;93.88;;
30824;SDS011;17550;45.486;12.222;2023-02-18T15:38:14;225.18;;;93.82;;
30824;SDS011;17550;45.486;12.222;2023-02-18T15:40:41;241.68;;;95.55;;
30824;SDS011;17550;45.486;12.222;2023-02-18T15:43:08;228.23;;;93.95;;
30824;SDS011;17550;45.486;12.222;2023-02-18T15:45:38;226.25;;;92.38;;
30824;SDS011;17550;45.486;12.222;2023-02-18T15:48:19;220.43;;;94.07;;
30824;SDS011;17550;45.486;12.222;2023-02-18T15:50:57;227.02;;;92.25;;
30824;SDS011;17550;45.486;12.222;2023-02-18T15:53:27;215.48;;;89.70;;
30824;SDS011;17550;45.486;12.222;2023-02-18T15:55:53;216.20;;;93.25;;
30824;SDS011;17550;45.486;12.222;2023-02-18T15:58:30;220.15;;;92.18;;
30824;SDS011;17550;45.486;12.222;2023-02-18T16:01:01;210.13;;;92.28;;
30824;SDS011;17550;45.486;12.222;2023-02-18T16:11:39;219.68;;;93.75;;
30824;SDS011;17550;45.486;12.222;2023-02-18T16:27:37;221.45;;;97.50;;
30824;SDS011;17550;45.486;12.222;2023-02-18T16:30:31;218.60;;;95.05;;
30824;SDS011;17550;45.486;12.222;2023-02-18T16:32:58;212.38;;;94.97;;
30824;SDS011;17550;45.486;12.222;2023-02-18T16:35:26;210.27;;;94.60;;
30824;SDS011;17550;45.486;12.222;2023-02-18T16:37:54;218.60;;;96.80;;
30824;SDS011;17550;45.486;12.222;2023-02-18T16:42:49;214.95;;;93.95;;
30824;SDS011;17550;45.486;12.222;2023-02-18T16:45:15;214.82;;;95.60;;
30824;SDS011;17550;45.486;12.222;2023-02-18T16:47:42;216.48;;;97.15;;
30824;SDS011;17550;45.486;12.222;2023-02-18T16:50:17;219.95;;;96.32;;
30824;SDS011;17550;45.486;12.222;2023-02-18T16:52:45;208.15;;;92.47;;
30824;SDS011;17550;45.486;12.222;2023-02-18T16:55:18;214.60;;;95.50;;
30824;SDS011;17550;45.486;12.222;2023-02-18T16:57:46;205.15;;;94.75;;
30824;SDS011;17550;45.486;12.222;2023-02-18T17:00:12;214.00;;;95.70;;
30824;SDS011;17550;45.486;12.222;2023-02-18T17:02:39;216.85;;;94.45;;
30824;SDS011;17550;45.486;12.222;2023-02-18T17:05:09;213.93;;;96.35;;
30824;SDS011;17550;45.486;12.222;2023-02-18T17:07:41;209.90;;;91.68;;
30824;SDS011;17550;45.486;12.222;2023-02-18T17:10:06;221.10;;;96.97;;
30824;SDS011;17550;45.486;12.222;2023-02-18T17:12:32;228.60;;;99.80;;
30824;SDS011;17550;45.486;12.222;2023-02-18T17:14:58;219.85;;;97.88;;